createdAt,value
2022-09-17T00:00:15.007Z,99.99
2022-09-17T00:01:15.031Z,99.99
2022-09-17T00:02:14.998Z,99.99
2022-09-17T00:03:15.054Z,99.99
2022-09-17T00:04:14.989Z,99.99
2022-09-17T00:05:14.963Z,99.99
2022-09-17T00:06:14.947Z,99.99
2022-09-17T00:07:15.052Z,99.99
2022-09-17T00:08:14.942Z,99.99
2022-09-17T00:09:14.880Z,99.99
2022-09-17T00:10:14.866Z,99.99
2022-09-17T00:11:14.870Z,99.99
2022-09-17T00:12:14.869Z,99.99
2022-09-17T00:13:14.891Z,99.99
2022-09-17T00:14:15.717Z,99.99
2022-09-17T00:15:14.834Z,99.99
2022-09-17T00:16:14.888Z,99.99
2022-09-17T00:17:14.805Z,99.99
2022-09-17T00:18:14.835Z,99.99
2022-09-17T00:19:14.782Z,99.99
2022-09-17T00:20:14.769Z,99.99
2022-09-17T00:21:14.762Z,99.99
2022-09-17T00:22:14.763Z,99.99
2022-09-17T00:23:14.748Z,99.99
2022-09-17T00:24:14.783Z,99.99
2022-09-17T00:25:14.714Z,99.99
2022-09-17T00:26:35.728Z,99.99
2022-09-17T00:27:14.696Z,99.99
2022-09-17T00:28:14.715Z,99.99
2022-09-17T00:29:14.715Z,99.99
2022-09-17T00:30:14.732Z,99.99
2022-09-17T00:31:14.770Z,99.99
2022-09-17T00:32:14.664Z,99.99
2022-09-17T00:33:14.701Z,99.99
2022-09-17T00:34:14.609Z,99.99
2022-09-17T00:35:14.610Z,99.99
2022-09-17T00:36:14.647Z,99.99
2022-09-17T00:37:14.618Z,99.99
2022-09-17T00:38:14.610Z,99.99
2022-09-17T00:39:14.569Z,99.99
2022-09-17T00:40:14.604Z,99.99
2022-09-17T00:41:14.616Z,99.99
2022-09-17T00:42:14.519Z,99.99
2022-09-17T00:43:14.548Z,99.99
2022-09-17T00:44:14.519Z,99.99
2022-09-17T00:45:14.513Z,99.99
2022-09-17T00:46:14.542Z,99.99
2022-09-17T00:47:14.487Z,99.99
2022-09-17T00:48:14.471Z,99.99
2022-09-17T00:49:14.490Z,99.99
2022-09-17T00:50:14.442Z,99.99
2022-09-17T00:51:14.423Z,99.99
2022-09-17T00:52:14.439Z,99.99
2022-09-17T00:53:14.437Z,99.99
2022-09-17T00:54:14.404Z,99.99
2022-09-17T00:55:14.398Z,99.99
2022-09-17T00:56:14.402Z,99.99
2022-09-17T00:57:14.391Z,99.99
2022-09-17T00:58:14.355Z,99.99
2022-09-17T00:59:14.414Z,99.99
2022-09-17T01:00:14.353Z,99.99
2022-09-17T01:01:14.482Z,99.99
2022-09-17T01:02:14.376Z,99.99
2022-09-17T01:03:14.304Z,99.99
2022-09-17T01:04:14.354Z,99.99
2022-09-17T01:05:14.307Z,99.99
2022-09-17T01:06:14.284Z,99.99
2022-09-17T01:07:14.296Z,99.99
2022-09-17T01:08:14.270Z,99.99
2022-09-17T01:09:14.256Z,99.99
2022-09-17T01:10:14.254Z,99.99
2022-09-17T01:11:14.234Z,99.99
2022-09-17T01:12:14.244Z,99.99
2022-09-17T01:13:14.246Z,99.99
2022-09-17T01:14:14.183Z,99.99
2022-09-17T01:15:14.217Z,99.99
2022-09-17T01:16:14.217Z,99.99
2022-09-17T01:17:14.155Z,99.99
2022-09-17T01:18:14.175Z,99.99
2022-09-17T01:19:14.141Z,99.99
2022-09-17T01:20:14.218Z,99.99
2022-09-17T01:21:14.120Z,99.99
2022-09-17T01:22:14.098Z,99.99
2022-09-17T01:23:14.105Z,99.99
2022-09-17T01:24:14.140Z,99.99
2022-09-17T01:25:14.061Z,99.99
2022-09-17T01:26:14.062Z,99.99
2022-09-17T01:27:14.056Z,99.99
2022-09-17T01:28:14.065Z,99.99
2022-09-17T01:29:14.025Z,99.99
2022-09-17T01:30:14.031Z,99.99
2022-09-17T01:31:14.236Z,99.99
2022-09-17T01:32:13.981Z,99.99
2022-09-17T01:33:13.981Z,99.99
2022-09-17T01:34:13.961Z,99.99
2022-09-17T01:35:13.971Z,99.99
2022-09-17T01:36:13.943Z,99.99
2022-09-17T01:37:13.952Z,99.99
2022-09-17T01:38:13.921Z,99.99
2022-09-17T01:39:13.933Z,99.99
2022-09-17T01:40:14.026Z,99.99
2022-09-17T01:41:13.942Z,99.99
2022-09-17T01:42:13.875Z,99.99
2022-09-17T01:43:13.866Z,99.99
2022-09-17T01:44:13.917Z,99.99
2022-09-17T01:45:13.909Z,99.99
2022-09-17T01:46:13.894Z,99.99
2022-09-17T01:47:16.708Z,99.99
2022-09-17T01:48:14.805Z,99.99
2022-09-17T01:49:13.845Z,99.99
2022-09-17T01:50:13.797Z,99.99
2022-09-17T01:51:13.784Z,99.99
2022-09-17T01:52:13.793Z,99.99
2022-09-17T01:53:13.841Z,99.99
2022-09-17T01:54:13.764Z,99.99
2022-09-17T01:55:13.747Z,99.99
2022-09-17T01:56:13.735Z,99.99
2022-09-17T01:57:13.713Z,99.99
2022-09-17T01:58:13.716Z,99.99
2022-09-17T01:59:13.724Z,99.99
2022-09-17T02:00:13.706Z,99.99
2022-09-17T02:01:13.756Z,99.99
2022-09-17T02:02:13.720Z,99.99
2022-09-17T02:03:13.783Z,99.99
2022-09-17T02:04:13.618Z,99.99
2022-09-17T02:05:13.631Z,99.99
2022-09-17T02:06:13.662Z,99.99
2022-09-17T02:07:13.648Z,99.99
2022-09-17T02:08:13.589Z,99.99
2022-09-17T02:09:15.455Z,99.99
2022-09-17T02:10:13.570Z,99.99
2022-09-17T02:11:13.561Z,99.99
2022-09-17T02:12:13.628Z,99.99
2022-09-17T02:13:13.542Z,99.99
2022-09-17T02:14:13.532Z,99.99
2022-09-17T02:15:13.558Z,99.99
2022-09-17T02:16:13.579Z,99.99
2022-09-17T02:17:13.508Z,99.99
2022-09-17T02:18:13.494Z,99.99
2022-09-17T02:19:13.483Z,99.99
2022-09-17T02:20:13.462Z,99.99
2022-09-17T02:21:13.492Z,99.99
2022-09-17T02:22:13.443Z,99.99
2022-09-17T02:23:13.494Z,99.99
2022-09-17T02:24:13.444Z,99.99
2022-09-17T02:25:13.425Z,99.99
2022-09-17T02:26:13.393Z,99.99
2022-09-17T02:27:13.755Z,99.99
2022-09-17T02:28:13.394Z,99.99
2022-09-17T02:29:13.413Z,99.99
2022-09-17T02:30:13.397Z,99.99
2022-09-17T02:31:13.431Z,99.99
2022-09-17T02:32:13.358Z,99.99
2022-09-17T02:33:13.365Z,99.99
2022-09-17T02:34:13.319Z,99.99
2022-09-17T02:35:13.364Z,99.99
2022-09-17T02:36:13.309Z,99.99
2022-09-17T02:37:13.295Z,99.99
2022-09-17T02:38:13.301Z,99.99
2022-09-17T02:39:13.273Z,99.99
2022-09-17T02:40:13.363Z,99.99
2022-09-17T02:41:13.258Z,99.99
2022-09-17T02:42:13.231Z,99.99
2022-09-17T02:43:13.228Z,99.99
2022-09-17T02:44:13.252Z,99.99
2022-09-17T02:45:13.219Z,99.99
2022-09-17T02:46:13.227Z,99.99
2022-09-17T02:47:13.186Z,99.99
2022-09-17T02:48:13.249Z,99.99
2022-09-17T02:49:13.202Z,99.99
2022-09-17T02:50:13.148Z,99.99
2022-09-17T02:51:13.151Z,99.99
2022-09-17T02:52:13.140Z,99.99
2022-09-17T02:53:13.263Z,99.99
2022-09-17T02:54:13.122Z,99.99
2022-09-17T02:55:13.110Z,99.99
2022-09-17T02:56:13.132Z,99.99
2022-09-17T02:57:13.079Z,99.99
2022-09-17T02:58:13.070Z,99.99
2022-09-17T02:59:13.041Z,99.99
2022-09-17T03:00:13.034Z,99.99
2022-09-17T03:01:13.122Z,99.99
2022-09-17T03:02:13.098Z,99.99
2022-09-17T03:03:13.036Z,99.99
2022-09-17T03:04:12.991Z,99.99
2022-09-17T03:05:12.986Z,99.99
2022-09-17T03:06:12.985Z,99.99
2022-09-17T03:07:12.973Z,99.99
2022-09-17T03:08:13.006Z,99.99
2022-09-17T03:09:12.957Z,99.99
2022-09-17T03:10:12.972Z,99.99
2022-09-17T03:11:13.024Z,99.99
2022-09-17T03:12:12.913Z,99.99
2022-09-17T03:13:12.899Z,99.99
2022-09-17T03:14:12.931Z,99.99
2022-09-17T03:15:12.877Z,99.99
2022-09-17T03:16:12.915Z,99.99
2022-09-17T03:17:12.867Z,99.99
2022-09-17T03:18:12.854Z,99.99
2022-09-17T03:19:12.866Z,99.99
2022-09-17T03:20:12.868Z,99.99
2022-09-17T03:21:12.824Z,99.99
2022-09-17T03:22:12.855Z,99.99
2022-09-17T03:23:12.800Z,99.99
2022-09-17T03:24:12.794Z,99.99
2022-09-17T03:25:12.833Z,99.99
2022-09-17T03:26:12.750Z,99.99
2022-09-17T03:27:12.759Z,99.99
2022-09-17T03:28:12.737Z,99.99
2022-09-17T03:29:12.781Z,99.99
2022-09-17T03:30:12.753Z,99.99
2022-09-17T03:31:12.813Z,99.99
2022-09-17T03:32:12.720Z,99.99
2022-09-17T03:33:12.691Z,99.99
2022-09-17T03:34:12.699Z,99.99
2022-09-17T03:35:12.689Z,99.99
2022-09-17T03:36:12.653Z,99.99
2022-09-17T03:37:12.761Z,99.99
2022-09-17T03:38:12.639Z,99.99
2022-09-17T03:39:12.650Z,99.99
2022-09-17T03:40:12.640Z,99.99
2022-09-17T03:41:12.579Z,99.99
2022-09-17T03:42:12.580Z,99.99
2022-09-17T03:43:12.609Z,99.99
2022-09-17T03:44:12.585Z,99.99
2022-09-17T03:45:12.572Z,99.99
2022-09-17T03:46:12.646Z,99.99
2022-09-17T03:47:12.574Z,99.99
2022-09-17T03:48:12.551Z,99.99
2022-09-17T03:49:12.513Z,99.99
2022-09-17T03:50:12.511Z,99.99
2022-09-17T03:51:12.522Z,99.99
2022-09-17T03:52:12.474Z,99.99
2022-09-17T03:53:12.479Z,99.99
2022-09-17T03:54:12.492Z,99.99
2022-09-17T03:55:12.469Z,99.99
2022-09-17T03:56:12.436Z,99.99
2022-09-17T03:57:12.423Z,99.99
2022-09-17T03:58:12.426Z,99.99
2022-09-17T03:59:12.396Z,99.99
2022-09-17T04:00:12.447Z,99.99
2022-09-17T04:01:12.435Z,99.99
2022-09-17T04:02:12.495Z,99.99
2022-09-17T04:03:12.358Z,99.99
2022-09-17T04:04:12.404Z,99.99
2022-09-17T04:05:12.327Z,99.99
2022-09-17T04:06:12.387Z,99.99
2022-09-17T04:07:12.322Z,99.99
2022-09-17T04:08:12.315Z,99.99
2022-09-17T04:09:12.315Z,99.99
2022-09-17T04:10:12.340Z,99.99
2022-09-17T04:11:12.326Z,99.99
2022-09-17T04:12:12.313Z,99.99
2022-09-17T04:13:12.240Z,99.99
2022-09-17T04:14:12.253Z,99.99
2022-09-17T04:15:12.249Z,99.99
2022-09-17T04:16:12.275Z,99.99
2022-09-17T04:17:12.216Z,99.99
2022-09-17T04:18:12.201Z,99.99
2022-09-17T04:19:12.211Z,99.99
2022-09-17T04:20:12.209Z,99.99
2022-09-17T04:21:12.212Z,99.99
2022-09-17T04:22:12.200Z,99.99
2022-09-17T04:23:12.139Z,99.99
2022-09-17T04:24:12.145Z,99.99
2022-09-17T04:25:12.160Z,99.99
2022-09-17T04:26:12.141Z,99.99
2022-09-17T04:27:12.103Z,99.99
2022-09-17T04:28:12.152Z,99.99
2022-09-17T04:29:12.107Z,99.99
2022-09-17T04:30:12.070Z,99.99
2022-09-17T04:31:12.140Z,99.99
2022-09-17T04:32:12.043Z,99.99
2022-09-17T04:33:12.033Z,99.99
2022-09-17T04:34:12.053Z,99.99
2022-09-17T04:35:12.009Z,99.99
2022-09-17T04:36:12.005Z,99.99
2022-09-17T04:37:11.985Z,99.99
2022-09-17T04:38:11.978Z,99.99
2022-09-17T04:39:12.034Z,99.99
2022-09-17T04:40:12.018Z,99.99
2022-09-17T04:41:11.946Z,99.99
2022-09-17T04:42:11.937Z,99.99
2022-09-17T04:43:11.945Z,99.99
2022-09-17T04:44:11.946Z,99.99
2022-09-17T04:45:11.911Z,99.99
2022-09-17T04:46:11.951Z,99.99
2022-09-17T04:47:11.918Z,99.99
2022-09-17T04:48:11.874Z,99.99
2022-09-17T04:49:11.887Z,99.99
2022-09-17T04:50:11.859Z,99.99
2022-09-17T04:51:11.848Z,99.99
2022-09-17T04:52:11.868Z,99.99
2022-09-17T04:53:11.827Z,99.99
2022-09-17T04:54:11.813Z,99.99
2022-09-17T04:55:11.829Z,99.99
2022-09-17T04:56:11.815Z,99.99
2022-09-17T04:57:11.820Z,99.99
2022-09-17T04:58:11.773Z,99.99
2022-09-17T04:59:11.750Z,99.99
2022-09-17T05:00:11.751Z,99.99
2022-09-17T05:01:11.833Z,99.99
2022-09-17T05:02:11.818Z,99.99
2022-09-17T05:03:11.701Z,99.99
2022-09-17T05:04:11.721Z,99.99
2022-09-17T05:05:11.754Z,99.99
2022-09-17T05:06:11.689Z,99.99
2022-09-17T05:07:13.839Z,99.99
2022-09-17T05:08:11.704Z,99.99
2022-09-17T05:09:11.679Z,99.99
2022-09-17T05:10:11.651Z,99.99
2022-09-17T05:11:11.682Z,99.99
2022-09-17T05:12:11.624Z,99.99
2022-09-17T05:13:11.736Z,99.99
2022-09-17T05:14:11.636Z,99.99
2022-09-17T05:15:11.615Z,99.99
2022-09-17T05:16:11.647Z,99.99
2022-09-17T05:17:11.581Z,99.99
2022-09-17T05:18:11.557Z,99.99
2022-09-17T05:19:11.563Z,99.99
2022-09-17T05:20:11.653Z,99.99
2022-09-17T05:21:11.531Z,99.99
2022-09-17T05:22:11.513Z,99.99
2022-09-17T05:23:11.519Z,99.99
2022-09-17T05:24:11.498Z,99.99
2022-09-17T05:25:11.543Z,99.99
2022-09-17T05:26:11.490Z,99.99
2022-09-17T05:27:11.487Z,99.99
2022-09-17T05:28:11.480Z,99.99
2022-09-17T05:29:11.466Z,99.99
2022-09-17T05:30:11.429Z,99.99
2022-09-17T05:31:11.486Z,99.99
2022-09-17T05:32:11.436Z,99.99
2022-09-17T05:33:11.388Z,99.99
2022-09-17T05:34:11.395Z,99.99
2022-09-17T05:35:11.436Z,99.99
2022-09-17T05:36:11.359Z,99.99
2022-09-17T05:37:11.362Z,99.99
2022-09-17T05:38:12.097Z,99.99
2022-09-17T05:39:11.755Z,99.99
2022-09-17T05:40:11.707Z,99.99
2022-09-17T05:41:11.307Z,99.99
2022-09-17T05:42:11.294Z,99.99
2022-09-17T05:43:11.306Z,99.99
2022-09-17T05:44:14.799Z,99.99
2022-09-17T05:45:12.318Z,99.99
2022-09-17T05:46:12.022Z,99.99
2022-09-17T05:47:11.271Z,99.99
2022-09-17T05:48:11.237Z,99.99
2022-09-17T05:49:12.591Z,99.99
2022-09-17T05:50:11.266Z,99.99
2022-09-17T05:51:11.227Z,99.99
2022-09-17T05:52:12.110Z,99.99
2022-09-17T05:53:11.184Z,99.99
2022-09-17T05:54:11.848Z,99.99
2022-09-17T05:55:11.857Z,99.99
2022-09-17T05:56:12.162Z,99.99
2022-09-17T05:57:11.142Z,99.99
2022-09-17T05:58:11.141Z,99.99
2022-09-17T05:59:11.696Z,99.99
2022-09-17T06:00:11.115Z,99.99
2022-09-17T06:01:11.272Z,99.99
2022-09-17T06:02:11.172Z,99.99
2022-09-17T06:03:11.205Z,99.99
2022-09-17T06:04:11.143Z,99.99
2022-09-17T06:05:11.152Z,99.99
2022-09-17T06:06:11.053Z,99.99
2022-09-17T06:07:11.211Z,99.99
2022-09-17T06:08:11.016Z,99.99
2022-09-17T06:09:11.038Z,99.99
2022-09-17T06:10:11.107Z,99.99
2022-09-17T06:11:11.283Z,99.99
2022-09-17T06:12:11.020Z,99.99
2022-09-17T06:13:10.953Z,99.99
2022-09-17T06:14:10.954Z,99.99
2022-09-17T06:15:10.949Z,99.99
2022-09-17T06:16:10.989Z,99.99
2022-09-17T06:17:10.930Z,99.99
2022-09-17T06:18:11.039Z,99.99
2022-09-17T06:19:10.991Z,99.99
2022-09-17T06:20:10.880Z,99.99
2022-09-17T06:21:10.887Z,99.99
2022-09-17T06:22:10.859Z,99.99
2022-09-17T06:23:15.785Z,99.99
2022-09-17T06:24:11.851Z,99.99
2022-09-17T06:25:10.841Z,99.99
2022-09-17T06:26:10.832Z,99.99
2022-09-17T06:27:10.821Z,99.99
2022-09-17T06:28:10.863Z,99.99
2022-09-17T06:29:10.990Z,99.99
2022-09-17T06:30:10.820Z,99.99
2022-09-17T06:31:10.835Z,99.99
2022-09-17T06:32:10.782Z,99.99
2022-09-17T06:33:10.803Z,99.99
2022-09-17T06:34:10.809Z,99.99
2022-09-17T06:35:10.704Z,99.99
2022-09-17T06:36:13.686Z,99.99
2022-09-17T06:37:10.700Z,99.99
2022-09-17T06:38:10.679Z,99.99
2022-09-17T06:39:10.698Z,99.99
2022-09-17T06:40:10.756Z,99.99
2022-09-17T06:41:10.682Z,99.99
2022-09-17T06:42:10.677Z,99.99
2022-09-17T06:43:10.636Z,99.99
2022-09-17T06:44:10.625Z,99.99
2022-09-17T06:45:15.811Z,99.99
2022-09-17T06:46:11.710Z,99.99
2022-09-17T06:47:10.603Z,99.99
2022-09-17T06:48:10.594Z,99.99
2022-09-17T06:49:10.565Z,99.99
2022-09-17T06:50:10.600Z,99.99
2022-09-17T06:51:10.551Z,99.99
2022-09-17T06:52:10.553Z,99.99
2022-09-17T06:53:10.518Z,99.99
2022-09-17T06:54:10.536Z,99.99
2022-09-17T06:55:10.496Z,99.99
2022-09-17T06:56:10.515Z,99.99
2022-09-17T06:57:10.476Z,99.99
2022-09-17T06:58:10.467Z,99.99
2022-09-17T06:59:10.457Z,99.99
2022-09-17T07:00:10.488Z,99.99
2022-09-17T07:01:10.483Z,99.99
2022-09-17T07:02:10.561Z,99.99
2022-09-17T07:03:10.449Z,99.99
2022-09-17T07:04:10.465Z,99.99
2022-09-17T07:05:10.412Z,99.99
2022-09-17T07:06:10.400Z,99.99
2022-09-17T07:07:10.371Z,99.99
2022-09-17T07:08:10.372Z,99.99
2022-09-17T07:09:11.065Z,99.99
2022-09-17T07:10:10.396Z,99.99
2022-09-17T07:11:10.321Z,99.99
2022-09-17T07:12:10.325Z,99.99
2022-09-17T07:13:10.381Z,99.99
2022-09-17T07:14:10.300Z,99.99
2022-09-17T07:15:10.352Z,99.99
2022-09-17T07:16:10.381Z,99.88
2022-09-17T07:17:10.271Z,99.77
2022-09-17T07:18:10.272Z,99.98
2022-09-17T07:19:11.142Z,99.98
2022-09-17T07:20:10.282Z,99.99
2022-09-17T07:21:10.244Z,99.99
2022-09-17T07:22:10.232Z,99.99
2022-09-17T07:23:10.206Z,99.99
2022-09-17T07:24:10.233Z,99.99
2022-09-17T07:25:10.224Z,99.99
2022-09-17T07:26:10.175Z,99.99
2022-09-17T07:27:10.214Z,99.99
2022-09-17T07:28:10.144Z,99.93
2022-09-17T07:29:10.132Z,99.42
2022-09-17T07:30:10.115Z,99.22
2022-09-17T07:31:15.240Z,98.81
2022-09-17T07:32:11.156Z,98.81
2022-09-17T07:33:10.094Z,99.22
2022-09-17T07:34:10.106Z,99.52
2022-09-17T07:35:10.058Z,99.32
2022-09-17T07:36:10.068Z,98.71
2022-09-17T07:37:10.087Z,98.50
2022-09-17T07:38:10.156Z,98.30
2022-09-17T07:39:10.027Z,98.20
2022-09-17T07:40:10.112Z,98.30
2022-09-17T07:41:10.009Z,98.30
2022-09-17T07:42:10.001Z,98.50
2022-09-17T07:43:09.978Z,97.89
2022-09-17T07:44:10.010Z,98.00
2022-09-17T07:45:10.160Z,97.89
2022-09-17T07:46:10.120Z,97.80
2022-09-17T07:47:09.965Z,97.49
2022-09-17T07:48:09.973Z,97.49
2022-09-17T07:49:09.936Z,97.39
2022-09-17T07:50:09.903Z,97.29
2022-09-17T07:51:09.940Z,97.19
2022-09-17T07:52:09.924Z,96.98
2022-09-17T07:53:09.914Z,97.29
2022-09-17T07:54:09.909Z,97.69
2022-09-17T07:55:09.866Z,97.69
2022-09-17T07:56:11.878Z,97.08
2022-09-17T07:57:09.887Z,96.88
2022-09-17T07:58:09.854Z,97.08
2022-09-17T07:59:09.866Z,97.19
2022-09-17T08:00:09.803Z,96.88
2022-09-17T08:01:09.873Z,96.58
2022-09-17T08:02:09.936Z,96.98
2022-09-17T08:03:09.829Z,96.68
2022-09-17T08:04:09.768Z,96.27
2022-09-17T08:05:09.791Z,96.47
2022-09-17T08:06:09.745Z,96.78
2022-09-17T08:07:09.727Z,96.68
2022-09-17T08:08:09.806Z,96.78
2022-09-17T08:09:09.705Z,96.78
2022-09-17T08:10:09.713Z,96.37
2022-09-17T08:11:09.698Z,96.37
2022-09-17T08:12:09.674Z,96.37
2022-09-17T08:13:09.657Z,96.27
2022-09-17T08:14:09.855Z,96.47
2022-09-17T08:15:09.674Z,96.47
2022-09-17T08:16:09.701Z,96.47
2022-09-17T08:17:09.607Z,96.27
2022-09-17T08:18:09.617Z,96.17
2022-09-17T08:19:09.606Z,96.07
2022-09-17T08:20:09.646Z,95.97
2022-09-17T08:21:09.617Z,95.56
2022-09-17T08:22:09.568Z,94.95
2022-09-17T08:23:09.570Z,94.74
2022-09-17T08:24:09.548Z,94.95
2022-09-17T08:25:09.538Z,95.15
2022-09-17T08:26:09.528Z,95.25
2022-09-17T08:27:09.628Z,95.05
2022-09-17T08:28:09.538Z,94.95
2022-09-17T08:29:09.519Z,95.25
2022-09-17T08:30:10.478Z,95.31
2022-09-17T08:31:09.574Z,95.31
2022-09-17T08:32:09.480Z,94.74
2022-09-17T08:33:09.485Z,94.64
2022-09-17T08:34:09.443Z,95.10
2022-09-17T08:35:09.435Z,95.10
2022-09-17T08:36:09.464Z,95.31
2022-09-17T08:37:09.542Z,95.21
2022-09-17T08:38:09.413Z,95.31
2022-09-17T08:39:09.441Z,94.90
2022-09-17T08:40:09.418Z,95.21
2022-09-17T08:41:09.371Z,95.21
2022-09-17T08:42:09.392Z,94.80
2022-09-17T08:43:09.463Z,94.50
2022-09-17T08:44:09.340Z,94.90
2022-09-17T08:45:09.312Z,95.21
2022-09-17T08:46:09.331Z,94.40
2022-09-17T08:47:09.304Z,94.29
2022-09-17T08:48:09.303Z,94.60
2022-09-17T08:49:09.321Z,94.29
2022-09-17T08:50:09.284Z,93.99
2022-09-17T08:51:09.280Z,93.48
2022-09-17T08:52:09.285Z,93.07
2022-09-17T08:53:09.278Z,93.89
2022-09-17T08:54:09.230Z,92.87
2022-09-17T08:55:09.466Z,92.57
2022-09-17T08:56:09.240Z,92.26
2022-09-17T08:57:09.184Z,92.77
2022-09-17T08:58:09.209Z,93.48
2022-09-17T08:59:09.166Z,92.77
2022-09-17T09:00:09.626Z,91.96
2022-09-17T09:01:09.148Z,91.96
2022-09-17T09:02:09.202Z,92.16
2022-09-17T09:03:09.110Z,91.65
2022-09-17T09:04:09.106Z,90.33
2022-09-17T09:05:09.179Z,90.94
2022-09-17T09:06:10.982Z,91.55
2022-09-17T09:07:09.089Z,90.03
2022-09-17T09:08:09.070Z,90.13
2022-09-17T09:09:09.062Z,90.03
2022-09-17T09:10:09.064Z,90.53
2022-09-17T09:11:09.074Z,89.72
2022-09-17T09:12:09.030Z,90.53
2022-09-17T09:13:09.045Z,90.94
2022-09-17T09:14:09.361Z,89.42
2022-09-17T09:15:09.020Z,90.03
2022-09-17T09:16:09.066Z,89.83
2022-09-17T09:17:08.970Z,89.42
2022-09-17T09:18:08.961Z,90.44
2022-09-17T09:19:13.150Z,89.83
2022-09-17T09:20:08.934Z,89.52
2022-09-17T09:21:08.971Z,89.83
2022-09-17T09:22:08.939Z,89.42
2022-09-17T09:23:08.909Z,89.62
2022-09-17T09:24:08.899Z,89.62
2022-09-17T09:25:08.885Z,89.83
2022-09-17T09:26:08.914Z,89.01
2022-09-17T09:27:08.895Z,89.22
2022-09-17T09:28:08.863Z,89.52
2022-09-17T09:29:08.856Z,89.62
2022-09-17T09:30:08.893Z,89.83
2022-09-17T09:31:08.856Z,90.03
2022-09-17T09:32:15.789Z,88.81
2022-09-17T09:33:09.833Z,89.31
2022-09-17T09:34:08.864Z,89.62
2022-09-17T09:35:08.855Z,89.72
2022-09-17T09:36:08.762Z,89.42
2022-09-17T09:37:08.875Z,89.83
2022-09-17T09:38:08.767Z,90.03
2022-09-17T09:39:08.748Z,89.83
2022-09-17T09:40:08.889Z,89.98
2022-09-17T09:41:08.719Z,90.44
2022-09-17T09:42:08.722Z,90.09
2022-09-17T09:43:08.687Z,90.29
2022-09-17T09:44:08.676Z,89.88
2022-09-17T09:45:08.687Z,90.39
2022-09-17T09:46:08.787Z,90.80
2022-09-17T09:47:08.647Z,89.88
2022-09-17T09:48:08.645Z,91.00
2022-09-17T09:49:08.618Z,90.19
2022-09-17T09:50:08.630Z,90.14
2022-09-17T09:51:08.648Z,89.94
2022-09-17T09:52:08.587Z,89.74
2022-09-17T09:53:08.610Z,89.84
2022-09-17T09:54:08.616Z,90.86
2022-09-17T09:55:08.583Z,90.35
2022-09-17T09:56:08.599Z,89.13
2022-09-17T09:57:08.541Z,89.39
2022-09-17T09:58:08.573Z,89.09
2022-09-17T09:59:08.525Z,88.78
2022-09-17T10:00:08.513Z,88.68
2022-09-17T10:01:08.495Z,89.59
2022-09-17T10:02:08.768Z,89.50
2022-09-17T10:03:08.494Z,89.55
2022-09-17T10:04:08.478Z,90.26
2022-09-17T10:05:08.482Z,89.86
2022-09-17T10:06:08.457Z,88.44
2022-09-17T10:07:08.553Z,89.45
2022-09-17T10:08:08.433Z,88.13
2022-09-17T10:09:08.573Z,88.34
2022-09-17T10:10:08.412Z,88.75
2022-09-17T10:11:08.394Z,89.15
2022-09-17T10:12:08.394Z,88.03
2022-09-17T10:13:08.375Z,88.23
2022-09-17T10:14:09.897Z,88.03
2022-09-17T10:15:08.401Z,88.13
2022-09-17T10:16:08.453Z,87.83
2022-09-17T10:17:08.316Z,88.09
2022-09-17T10:18:08.317Z,86.88
2022-09-17T10:19:08.307Z,88.09
2022-09-17T10:20:08.338Z,86.98
2022-09-17T10:21:08.276Z,86.77
2022-09-17T10:22:08.310Z,86.16
2022-09-17T10:23:08.274Z,85.96
2022-09-17T10:24:08.260Z,85.96
2022-09-17T10:25:08.308Z,86.68
2022-09-17T10:26:08.227Z,86.47
2022-09-17T10:27:08.228Z,86.47
2022-09-17T10:28:08.220Z,86.57
2022-09-17T10:29:08.199Z,86.88
2022-09-17T10:30:08.219Z,86.68
2022-09-17T10:31:09.120Z,86.68
2022-09-17T10:32:08.198Z,86.77
2022-09-17T10:33:08.180Z,87.18
2022-09-17T10:34:08.149Z,87.28
2022-09-17T10:35:08.151Z,87.18
2022-09-17T10:36:08.172Z,87.69
2022-09-17T10:37:08.111Z,87.69
2022-09-17T10:38:08.124Z,88.49
2022-09-17T10:39:08.091Z,87.89
2022-09-17T10:40:08.129Z,88.70
2022-09-17T10:41:08.083Z,89.61
2022-09-17T10:42:08.101Z,89.98
2022-09-17T10:43:08.061Z,88.86
2022-09-17T10:44:08.045Z,88.05
2022-09-17T10:45:08.063Z,88.56
2022-09-17T10:46:08.064Z,88.42
2022-09-17T10:47:08.012Z,88.21
2022-09-17T10:48:08.014Z,88.51
2022-09-17T10:49:07.991Z,87.81
2022-09-17T10:50:08.023Z,87.36
2022-09-17T10:51:07.962Z,87.87
2022-09-17T10:52:07.955Z,87.56
2022-09-17T10:53:07.964Z,86.82
2022-09-17T10:54:07.923Z,86.51
2022-09-17T10:55:07.975Z,87.18
2022-09-17T10:56:08.047Z,88.19
2022-09-17T10:57:07.915Z,88.09
2022-09-17T10:58:07.949Z,86.98
2022-09-17T10:59:07.881Z,85.62
2022-09-17T11:00:07.923Z,84.41
2022-09-17T11:01:07.864Z,84.31
2022-09-17T11:02:07.908Z,83.13
2022-09-17T11:03:07.829Z,83.44
2022-09-17T11:04:07.835Z,84.71
2022-09-17T11:05:07.846Z,83.90
2022-09-17T11:06:13.610Z,83.19
2022-09-17T11:07:08.800Z,82.99
2022-09-17T11:08:07.789Z,83.80
2022-09-17T11:09:07.770Z,84.51
2022-09-17T11:10:07.762Z,84.31
2022-09-17T11:11:07.761Z,84.47
2022-09-17T11:12:07.803Z,84.67
2022-09-17T11:13:07.752Z,83.15
2022-09-17T11:14:07.912Z,82.24
2022-09-17T11:15:07.719Z,82.75
2022-09-17T11:16:07.737Z,84.73
2022-09-17T11:17:07.783Z,81.80
2022-09-17T11:18:07.709Z,81.70
2022-09-17T11:19:07.696Z,81.30
2022-09-17T11:20:07.663Z,82.21
2022-09-17T11:21:07.682Z,80.90
2022-09-17T11:22:07.685Z,81.10
2022-09-17T11:23:08.546Z,81.10
2022-09-17T11:24:07.642Z,80.08
2022-09-17T11:25:07.606Z,80.29
2022-09-17T11:26:07.593Z,82.21
2022-09-17T11:27:07.583Z,81.20
2022-09-17T11:28:07.607Z,79.68
2022-09-17T11:29:07.565Z,79.17
2022-09-17T11:30:07.586Z,78.57
2022-09-17T11:31:08.106Z,79.48
2022-09-17T11:32:07.536Z,79.28
2022-09-17T11:33:07.544Z,79.17
2022-09-17T11:34:07.507Z,80.29
2022-09-17T11:35:07.536Z,79.88
2022-09-17T11:36:08.704Z,81.50
2022-09-17T11:37:07.465Z,79.88
2022-09-17T11:38:08.138Z,80.39
2022-09-17T11:39:07.447Z,80.59
2022-09-17T11:40:07.467Z,81.40
2022-09-17T11:41:07.488Z,80.39
2022-09-17T11:42:07.418Z,80.29
2022-09-17T11:43:07.408Z,78.27
2022-09-17T11:44:07.424Z,77.66
2022-09-17T11:45:07.388Z,77.66
2022-09-17T11:46:07.459Z,78.77
2022-09-17T11:47:07.397Z,79.48
2022-09-17T11:48:07.368Z,78.77
2022-09-17T11:49:07.990Z,78.17
2022-09-17T11:50:07.620Z,77.66
2022-09-17T11:51:07.363Z,76.04
2022-09-17T11:52:07.315Z,77.19
2022-09-17T11:53:07.330Z,78.10
2022-09-17T11:54:07.292Z,78.91
2022-09-17T11:55:07.319Z,77.60
2022-09-17T11:56:07.292Z,78.27
2022-09-17T11:57:09.715Z,78.27
2022-09-17T11:58:07.253Z,78.17
2022-09-17T11:59:07.498Z,78.88
2022-09-17T12:00:07.542Z,79.08
2022-09-17T12:01:07.533Z,79.44
2022-09-17T12:02:08.832Z,78.13
2022-09-17T12:03:07.219Z,77.22
2022-09-17T12:04:07.183Z,78.53
2022-09-17T12:05:07.214Z,77.93
2022-09-17T12:06:08.126Z,78.33
2022-09-17T12:07:07.196Z,77.12
2022-09-17T12:08:10.278Z,77.02
2022-09-17T12:09:08.126Z,77.83
2022-09-17T12:10:07.126Z,79.24
2022-09-17T12:11:07.146Z,78.13
2022-09-17T12:12:07.332Z,79.04
2022-09-17T12:13:07.439Z,79.94
2022-09-17T12:14:07.088Z,79.79
2022-09-17T12:15:07.069Z,79.17
2022-09-17T12:16:07.125Z,80.29
2022-09-17T12:17:07.030Z,80.08
2022-09-17T12:18:31.285Z,79.79
2022-09-17T12:19:09.482Z,80.08
2022-09-17T12:20:07.013Z,81.50
2022-09-17T12:21:07.419Z,80.83
2022-09-17T12:22:07.031Z,81.34
2022-09-17T12:23:06.969Z,81.44
2022-09-17T12:24:08.877Z,82.35
2022-09-17T12:25:06.966Z,82.35
2022-09-17T12:26:06.951Z,82.04
2022-09-17T12:27:06.919Z,81.34
2022-09-17T12:28:07.015Z,81.84
2022-09-17T12:29:06.906Z,82.08
2022-09-17T12:30:06.945Z,81.37
2022-09-17T12:31:08.167Z,81.48
2022-09-17T12:32:06.898Z,81.78
2022-09-17T12:33:06.951Z,81.98
2022-09-17T12:34:06.882Z,82.28
2022-09-17T12:35:06.851Z,82.79
2022-09-17T12:36:06.854Z,82.99
2022-09-17T12:37:06.863Z,83.70
2022-09-17T12:38:06.872Z,83.56
2022-09-17T12:39:06.805Z,81.94
2022-09-17T12:40:06.851Z,82.04
2022-09-17T12:41:07.599Z,82.10
2022-09-17T12:42:06.770Z,81.40
2022-09-17T12:43:06.756Z,82.01
2022-09-17T12:44:06.774Z,81.67
2022-09-17T12:45:06.725Z,81.56
2022-09-17T12:46:08.191Z,81.46
2022-09-17T12:47:06.717Z,80.45
2022-09-17T12:48:06.695Z,81.16
2022-09-17T12:49:06.758Z,80.76
2022-09-17T12:50:06.677Z,81.46
2022-09-17T12:51:06.669Z,79.64
2022-09-17T12:52:06.649Z,79.04